createdAt,value
2022-08-30T00:01:14.569Z,91.40
2022-08-30T00:04:02.223Z,91.00
2022-08-30T00:06:47.576Z,91.10
2022-08-30T00:09:33.194Z,91.20
2022-08-30T00:12:21.180Z,91.10
2022-08-30T00:15:07.223Z,91.20
2022-08-30T00:17:54.456Z,91.50
2022-08-30T00:20:40.396Z,91.40
2022-08-30T00:23:26.960Z,91.30
2022-08-30T00:26:12.659Z,91.40
2022-08-30T00:28:58.857Z,91.50
2022-08-30T00:31:43.991Z,91.50
2022-08-30T00:34:29.638Z,91.50
2022-08-30T00:37:15.860Z,91.60
2022-08-30T00:40:03.935Z,91.70
2022-08-30T00:42:51.003Z,91.60
2022-08-30T00:45:38.661Z,91.70
2022-08-30T00:48:26.979Z,91.80
2022-08-30T00:51:14.847Z,91.80
2022-08-30T00:54:01.376Z,91.80
2022-08-30T00:56:49.584Z,92.00
2022-08-30T00:59:35.317Z,92.00
2022-08-30T01:02:23.739Z,92.00
2022-08-30T01:05:10.987Z,92.00
2022-08-30T01:08:01.648Z,92.10
2022-08-30T01:10:46.944Z,92.10
2022-08-30T01:13:34.676Z,92.10
2022-08-30T01:16:21.884Z,92.10
2022-08-30T01:19:24.780Z,92.10
2022-08-30T01:22:25.223Z,92.20
2022-08-30T01:25:12.856Z,92.20
2022-08-30T01:28:06.256Z,92.20
2022-08-30T01:30:56.242Z,92.20
2022-08-30T01:33:44.797Z,92.20
2022-08-30T01:36:31.122Z,92.30
2022-08-30T01:39:18.674Z,92.20
2022-08-30T01:42:05.021Z,92.30
2022-08-30T01:44:51.245Z,92.30
2022-08-30T01:47:37.643Z,92.20
2022-08-30T01:50:23.061Z,92.10
2022-08-30T01:53:09.066Z,92.10
2022-08-30T01:55:59.210Z,92.00
2022-08-30T01:58:45.090Z,92.00
2022-08-30T02:01:33.363Z,92.00
2022-08-30T02:04:19.381Z,92.00
2022-08-30T02:07:06.488Z,92.00
2022-08-30T02:09:53.148Z,91.80
2022-08-30T02:12:38.489Z,91.90
2022-08-30T02:15:23.791Z,91.80
2022-08-30T02:18:10.870Z,91.70
2022-08-30T02:20:56.653Z,91.70
2022-08-30T02:23:42.595Z,91.60
2022-08-30T02:26:31.111Z,91.80
2022-08-30T02:29:20.542Z,91.70
2022-08-30T02:32:06.151Z,91.70
2022-08-30T02:34:51.564Z,91.70
2022-08-30T02:37:37.929Z,91.70
2022-08-30T02:40:23.627Z,91.60
2022-08-30T02:43:10.153Z,91.50
2022-08-30T02:45:58.429Z,91.50
2022-08-30T02:48:45.207Z,91.40
2022-08-30T02:51:30.895Z,91.50
2022-08-30T02:54:20.105Z,91.40
2022-08-30T02:57:06.735Z,91.30
2022-08-30T02:59:52.321Z,91.30
2022-08-30T03:02:43.751Z,91.40
2022-08-30T03:05:29.946Z,91.40
2022-08-30T03:08:15.523Z,91.50
2022-08-30T03:11:03.098Z,91.60
2022-08-30T03:13:51.214Z,91.80
2022-08-30T03:16:38.185Z,91.80
2022-08-30T03:19:25.575Z,91.80
2022-08-30T03:22:11.569Z,91.90
2022-08-30T03:24:59.587Z,91.90
2022-08-30T03:27:44.816Z,91.90
2022-08-30T03:30:30.567Z,91.90
2022-08-30T03:33:16.560Z,92.00
2022-08-30T03:36:08.745Z,92.10
2022-08-30T03:38:57.640Z,92.20
2022-08-30T03:41:43.169Z,92.30
2022-08-30T03:44:28.456Z,92.10
2022-08-30T03:47:14.056Z,92.30
2022-08-30T03:50:00.352Z,92.30
2022-08-30T03:52:46.084Z,92.20
2022-08-30T03:55:31.849Z,92.30
2022-08-30T03:58:19.061Z,92.20
2022-08-30T04:01:05.020Z,92.30
2022-08-30T04:03:50.980Z,92.40
2022-08-30T04:06:36.491Z,92.60
2022-08-30T04:09:22.119Z,92.60
2022-08-30T04:12:08.802Z,92.60
2022-08-30T04:14:54.208Z,92.70
2022-08-30T04:17:39.692Z,92.60
2022-08-30T04:20:25.076Z,92.60
2022-08-30T04:23:11.812Z,92.50
2022-08-30T04:25:57.585Z,92.50
2022-08-30T04:28:42.886Z,92.50
2022-08-30T04:31:28.770Z,92.60
2022-08-30T04:34:18.475Z,92.60
2022-08-30T04:37:04.737Z,92.70
2022-08-30T04:39:50.898Z,92.70
2022-08-30T04:42:39.190Z,92.90
2022-08-30T04:45:24.657Z,93.00
2022-08-30T04:48:10.443Z,93.00
2022-08-30T04:50:57.971Z,93.10
2022-08-30T04:53:44.244Z,93.00
2022-08-30T04:56:30.887Z,93.20
2022-08-30T04:59:16.976Z,93.30
2022-08-30T05:02:14.341Z,93.50
2022-08-30T05:05:20.132Z,93.50
2022-08-30T05:08:06.413Z,93.60
2022-08-30T05:10:57.339Z,93.60
2022-08-30T05:13:44.009Z,93.70
2022-08-30T05:16:29.938Z,93.80
2022-08-30T05:19:15.623Z,94.00
2022-08-30T05:22:01.240Z,94.10
2022-08-30T05:24:49.437Z,94.00
2022-08-30T05:27:37.660Z,94.20
2022-08-30T05:30:24.658Z,94.30
2022-08-30T05:33:10.180Z,94.30
2022-08-30T05:35:55.598Z,94.40
2022-08-30T05:38:42.015Z,94.50
2022-08-30T05:41:27.682Z,94.70
2022-08-30T05:44:16.207Z,94.80
2022-08-30T05:47:01.450Z,95.20
2022-08-30T05:49:48.380Z,95.00
2022-08-30T05:52:41.803Z,95.00
2022-08-30T05:55:27.252Z,95.10
2022-08-30T05:58:12.797Z,95.10
2022-08-30T06:00:59.068Z,95.10
2022-08-30T06:03:44.402Z,95.10
2022-08-30T06:06:31.898Z,95.20
2022-08-30T06:09:17.611Z,95.10
2022-08-30T06:12:03.263Z,95.10
2022-08-30T06:14:48.728Z,95.20
2022-08-30T06:17:34.260Z,95.10
2022-08-30T06:20:20.377Z,95.10
2022-08-30T06:23:06.194Z,95.10
2022-08-30T06:25:51.705Z,95.10
2022-08-30T06:28:37.363Z,95.20
2022-08-30T06:31:25.792Z,95.10
2022-08-30T06:34:11.539Z,94.90
2022-08-30T06:36:59.123Z,94.70
2022-08-30T06:39:44.443Z,94.70
2022-08-30T06:42:35.249Z,94.50
2022-08-30T06:45:21.884Z,94.50
2022-08-30T06:48:07.437Z,94.00
2022-08-30T06:50:54.889Z,93.70
2022-08-30T06:53:42.268Z,93.70
2022-08-30T06:56:28.159Z,93.20
2022-08-30T06:59:13.784Z,92.90
2022-08-30T07:01:59.618Z,92.80
2022-08-30T07:04:44.924Z,92.60
2022-08-30T07:07:30.439Z,92.20
2022-08-30T07:10:16.691Z,91.90
2022-08-30T07:13:01.904Z,91.50
2022-08-30T07:15:48.110Z,91.10
2022-08-30T07:18:51.944Z,91.00
2022-08-30T07:21:40.163Z,90.80
2022-08-30T07:24:25.511Z,90.50
2022-08-30T07:27:11.078Z,90.40
2022-08-30T07:30:00.895Z,90.20
2022-08-30T07:32:46.088Z,89.80
2022-08-30T07:35:37.347Z,89.20
2022-08-30T07:38:23.021Z,88.50
2022-08-30T07:41:08.689Z,87.80
2022-08-30T07:43:55.111Z,87.00
2022-08-30T07:46:41.667Z,86.10
2022-08-30T07:49:27.257Z,84.90
2022-08-30T07:52:12.926Z,83.80
2022-08-30T07:55:02.328Z,82.80
2022-08-30T07:57:47.946Z,81.70
2022-08-30T08:00:33.599Z,81.50
2022-08-30T08:03:19.256Z,80.60
2022-08-30T08:06:06.751Z,80.00
2022-08-30T08:08:53.575Z,79.40
2022-08-30T08:11:41.557Z,77.70
2022-08-30T08:14:28.707Z,77.30
2022-08-30T08:17:14.261Z,77.00
2022-08-30T08:20:00.801Z,76.30
2022-08-30T08:22:46.281Z,75.30
2022-08-30T08:25:32.029Z,74.70
2022-08-30T08:28:24.767Z,72.90
2022-08-30T08:31:16.224Z,71.80
2022-08-30T08:34:05.946Z,71.80
2022-08-30T08:36:51.728Z,70.90
2022-08-30T08:39:37.161Z,69.40
2022-08-30T08:42:43.192Z,69.20
2022-08-30T08:45:51.626Z,68.80
2022-08-30T08:48:59.678Z,68.10
2022-08-30T08:52:07.310Z,67.70
2022-08-30T08:55:17.403Z,66.60
2022-08-30T08:58:03.228Z,65.50
2022-08-30T09:00:48.673Z,65.20
2022-08-30T09:03:35.072Z,63.50
2022-08-30T09:06:29.567Z,62.70
2022-08-30T09:09:18.255Z,62.60
2022-08-30T09:12:04.945Z,62.10
2022-08-30T09:14:55.443Z,61.50
2022-08-30T09:17:55.229Z,60.90
2022-08-30T09:20:47.210Z,60.30
2022-08-30T09:23:39.164Z,60.30
2022-08-30T09:26:35.156Z,60.50
2022-08-30T09:29:21.120Z,60.20
2022-08-30T09:32:25.623Z,59.90
2022-08-30T09:35:18.200Z,59.20
2022-08-30T09:38:08.394Z,58.60
2022-08-30T09:40:57.148Z,58.60
2022-08-30T09:43:42.324Z,58.40
2022-08-30T09:46:27.796Z,57.90
2022-08-30T09:49:36.422Z,57.10
2022-08-30T09:52:27.654Z,56.30
2022-08-30T09:55:32.604Z,56.10
2022-08-30T09:58:48.745Z,55.40
2022-08-30T10:01:39.682Z,54.40
2022-08-30T10:04:44.299Z,54.40
2022-08-30T10:07:38.585Z,54.00
2022-08-30T10:10:24.864Z,53.80
2022-08-30T10:13:41.258Z,53.80
2022-08-30T10:16:35.280Z,53.50
2022-08-30T10:19:44.184Z,53.10
2022-08-30T10:22:29.729Z,52.40
2022-08-30T10:25:25.140Z,52.60
2022-08-30T10:28:36.363Z,51.40
2022-08-30T10:31:52.339Z,50.60
2022-08-30T10:34:56.243Z,50.30
2022-08-30T10:37:52.293Z,50.00
2022-08-30T10:41:01.153Z,49.70
2022-08-30T10:43:52.661Z,49.10
2022-08-30T10:47:23.072Z,48.90
2022-08-30T10:50:47.103Z,49.20
2022-08-30T10:53:55.666Z,49.10
2022-08-30T10:56:44.638Z,49.00
2022-08-30T10:59:30.076Z,48.50
2022-08-30T11:02:46.644Z,48.50
2022-08-30T11:05:58.328Z,47.90
2022-08-30T11:09:17.569Z,46.50
2022-08-30T11:12:38.149Z,45.40
2022-08-30T11:15:26.704Z,45.00
2022-08-30T11:18:15.118Z,45.20
2022-08-30T11:21:25.719Z,44.40
2022-08-30T11:24:13.435Z,43.20
2022-08-30T11:27:01.175Z,42.80
2022-08-30T11:29:48.655Z,41.00
2022-08-30T11:33:09.400Z,40.80
2022-08-30T11:35:55.360Z,40.30
2022-08-30T11:38:40.556Z,40.00
2022-08-30T11:41:38.205Z,38.00
2022-08-30T11:44:31.528Z,36.30
2022-08-30T11:47:48.851Z,35.30
2022-08-30T11:50:54.641Z,34.70
2022-08-30T11:53:49.265Z,33.80
2022-08-30T11:56:57.063Z,33.20
2022-08-30T12:00:02.334Z,32.40
2022-08-30T12:03:06.204Z,31.00
2022-08-30T12:06:04.711Z,30.10
2022-08-30T12:08:59.575Z,29.20
2022-08-30T12:11:56.931Z,28.80
2022-08-30T12:15:00.459Z,28.10
2022-08-30T12:18:04.168Z,27.60
2022-08-30T12:20:50.486Z,27.10
2022-08-30T12:23:48.380Z,26.50
2022-08-30T12:26:43.835Z,26.50
2022-08-30T12:29:31.186Z,26.60
2022-08-30T12:32:25.480Z,25.90
2022-08-30T12:35:22.271Z,25.80
2022-08-30T12:38:25.631Z,25.10
2022-08-30T12:41:22.841Z,24.70
2022-08-30T12:44:31.902Z,24.40
2022-08-30T12:47:22.914Z,24.10
2022-08-30T12:50:09.928Z,23.70
2022-08-30T12:53:13.066Z,23.30
2022-08-30T12:56:09.524Z,23.00
2022-08-30T12:58:55.514Z,22.50
2022-08-30T13:01:41.477Z,22.40
2022-08-30T13:04:28.656Z,22.40
2022-08-30T13:07:28.536Z,22.10
2022-08-30T13:10:21.971Z,22.00
2022-08-30T13:16:20.722Z,21.10
2022-08-30T13:19:33.708Z,21.30
2022-08-30T13:22:28.729Z,22.10
2022-08-30T13:25:14.328Z,22.40
2022-08-30T13:28:01.333Z,22.10
2022-08-30T13:30:46.695Z,22.50
2022-08-30T13:33:32.316Z,22.30
2022-08-30T13:36:20.432Z,22.60
2022-08-30T13:39:08.374Z,22.50
2022-08-30T13:41:54.787Z,22.70
2022-08-30T13:44:42.577Z,22.50
2022-08-30T13:47:35.027Z,22.40
2022-08-30T13:50:22.242Z,22.40
2022-08-30T13:53:09.320Z,22.20
2022-08-30T13:55:55.427Z,22.00
2022-08-30T13:58:41.007Z,21.90
2022-08-30T14:01:28.110Z,22.20
2022-08-30T14:04:15.772Z,22.70
2022-08-30T14:07:13.968Z,23.20
2022-08-30T14:13:10.108Z,23.30
2022-08-30T14:19:10.836Z,23.30
2022-08-30T14:21:56.504Z,23.00
2022-08-30T14:24:41.926Z,22.80
2022-08-30T14:27:29.731Z,22.60
2022-08-30T14:30:21.107Z,22.10
2022-08-30T14:33:06.530Z,22.00
2022-08-30T14:35:55.038Z,22.40
2022-08-30T14:38:40.465Z,22.70
2022-08-30T14:41:28.203Z,22.60
2022-08-30T14:44:14.804Z,22.20
2022-08-30T14:47:00.605Z,22.90
2022-08-30T14:49:46.185Z,23.40
2022-08-30T14:52:32.415Z,23.60
2022-08-30T14:55:17.897Z,24.10
2022-08-30T14:58:04.079Z,24.60
2022-08-30T15:00:54.718Z,24.90
2022-08-30T15:03:42.511Z,25.60
2022-08-30T15:06:28.210Z,26.20
2022-08-30T15:09:18.500Z,27.00
2022-08-30T15:12:09.067Z,27.70
2022-08-30T15:14:55.768Z,28.60
2022-08-30T15:17:41.326Z,29.30
2022-08-30T15:20:27.674Z,29.40
2022-08-30T15:23:16.902Z,29.20
2022-08-30T15:26:03.452Z,29.30
2022-08-30T15:28:48.879Z,29.10
2022-08-30T15:31:34.897Z,29.00
2022-08-30T15:34:26.191Z,28.30
2022-08-30T15:37:16.317Z,28.20
2022-08-30T15:40:04.736Z,27.90
2022-08-30T15:42:51.390Z,28.10
2022-08-30T15:45:36.678Z,28.20
2022-08-30T15:48:23.111Z,27.50
2022-08-30T15:51:13.964Z,27.10
2022-08-30T15:54:00.131Z,26.50
2022-08-30T15:56:46.178Z,25.80
2022-08-30T15:59:31.923Z,24.80
2022-08-30T16:02:18.241Z,24.50
2022-08-30T16:05:04.926Z,24.80
2022-08-30T16:07:52.426Z,25.50
2022-08-30T16:10:44.969Z,25.50
2022-08-30T16:13:33.719Z,25.00
2022-08-30T16:16:20.996Z,25.30
2022-08-30T16:19:06.987Z,26.30
2022-08-30T16:21:52.518Z,27.30
2022-08-30T16:24:39.327Z,27.80
2022-08-30T16:27:25.132Z,28.50
2022-08-30T16:30:14.206Z,28.90
2022-08-30T16:33:01.113Z,28.70
2022-08-30T16:35:51.102Z,28.90
2022-08-30T16:38:36.700Z,28.70
2022-08-30T16:41:22.947Z,28.20
2022-08-30T16:44:12.864Z,27.40
2022-08-30T16:46:58.287Z,27.40
2022-08-30T16:49:43.702Z,26.90
2022-08-30T16:52:36.127Z,26.00
2022-08-30T16:55:25.025Z,25.70
2022-08-30T16:58:19.289Z,25.60
2022-08-30T17:01:06.394Z,26.00
2022-08-30T17:03:53.216Z,26.20
2022-08-30T17:06:39.080Z,26.10
2022-08-30T17:09:24.861Z,26.10
2022-08-30T17:12:11.211Z,26.60
2022-08-30T17:14:56.959Z,27.60
2022-08-30T17:17:43.402Z,28.90
2022-08-30T17:20:31.837Z,29.90
2022-08-30T17:23:20.043Z,30.60
2022-08-30T17:26:07.393Z,30.90
2022-08-30T17:28:54.613Z,30.50
2022-08-30T17:31:41.704Z,30.00
2022-08-30T17:34:28.165Z,30.80
2022-08-30T17:37:13.606Z,32.20
2022-08-30T17:40:02.669Z,33.20
2022-08-30T17:42:54.094Z,33.10
2022-08-30T17:45:42.472Z,32.00
2022-08-30T17:48:29.109Z,31.60
2022-08-30T17:51:15.873Z,32.00
2022-08-30T17:54:02.859Z,33.50
2022-08-30T17:56:48.804Z,34.90
2022-08-30T17:59:35.361Z,35.20
2022-08-30T18:02:23.060Z,35.10
2022-08-30T18:05:15.785Z,36.00
2022-08-30T18:08:01.451Z,37.60
2022-08-30T18:10:48.171Z,39.40
2022-08-30T18:13:35.927Z,40.70
2022-08-30T18:16:21.460Z,42.10
2022-08-30T18:19:09.536Z,43.50
2022-08-30T18:21:55.859Z,44.60
2022-08-30T18:24:41.150Z,46.20
2022-08-30T18:27:27.097Z,47.70
2022-08-30T18:30:14.276Z,49.10
2022-08-30T18:33:00.105Z,50.20
2022-08-30T18:35:48.722Z,51.10
2022-08-30T18:38:35.667Z,52.20
2022-08-30T18:41:21.346Z,53.10
2022-08-30T18:44:26.768Z,54.50
2022-08-30T18:47:12.757Z,54.90
2022-08-30T18:49:58.916Z,55.90
2022-08-30T18:52:45.277Z,56.70
2022-08-30T18:55:30.939Z,57.10
2022-08-30T18:58:17.188Z,57.80
2022-08-30T19:01:04.473Z,58.80
2022-08-30T19:03:49.885Z,60.00
2022-08-30T19:06:37.688Z,60.40
2022-08-30T19:09:23.893Z,61.10
2022-08-30T19:12:12.303Z,61.50
2022-08-30T19:14:59.406Z,61.90
2022-08-30T19:17:46.190Z,63.90
2022-08-30T19:20:31.707Z,63.40
2022-08-30T19:23:18.383Z,64.50
2022-08-30T19:26:05.364Z,65.40
2022-08-30T19:28:50.533Z,66.30
2022-08-30T19:31:40.053Z,67.00
2022-08-30T19:34:26.844Z,67.80
2022-08-30T19:37:14.836Z,68.80
2022-08-30T19:40:08.892Z,69.20
2022-08-30T19:42:55.319Z,70.10
2022-08-30T19:45:41.677Z,70.50
2022-08-30T19:48:32.302Z,71.40
2022-08-30T19:51:18.418Z,71.30
2022-08-30T19:54:05.684Z,71.90
2022-08-30T19:56:53.579Z,72.50
2022-08-30T19:59:38.964Z,73.10
2022-08-30T20:02:30.558Z,72.80
2022-08-30T20:05:24.372Z,73.50
2022-08-30T20:08:10.149Z,74.10
2022-08-30T20:10:56.726Z,74.10
2022-08-30T20:13:43.857Z,75.40
2022-08-30T20:19:36.176Z,75.40
2022-08-30T20:22:21.799Z,76.60
2022-08-30T20:25:10.785Z,76.70
2022-08-30T20:27:57.515Z,76.60
2022-08-30T20:30:43.624Z,76.90
2022-08-30T20:33:29.288Z,77.20
2022-08-30T20:36:14.949Z,77.70
2022-08-30T20:39:02.255Z,77.90
2022-08-30T20:41:48.462Z,78.30
2022-08-30T20:44:34.700Z,78.80
2022-08-30T20:47:21.203Z,79.00
2022-08-30T20:50:13.911Z,79.50
2022-08-30T20:52:59.182Z,79.60
2022-08-30T20:55:47.187Z,79.80
2022-08-30T20:58:32.666Z,80.20
2022-08-30T21:01:18.386Z,80.50
2022-08-30T21:04:05.574Z,80.90
2022-08-30T21:06:51.519Z,81.00
2022-08-30T21:09:38.407Z,81.10
2022-08-30T21:12:30.564Z,80.90
2022-08-30T21:15:36.203Z,81.40
2022-08-30T21:18:22.313Z,81.50
2022-08-30T21:21:21.036Z,82.10
2022-08-30T21:24:10.394Z,81.40
2022-08-30T21:26:59.081Z,81.70
2022-08-30T21:29:44.763Z,82.40
2022-08-30T21:32:30.298Z,81.50
2022-08-30T21:35:33.944Z,82.00
2022-08-30T21:38:19.961Z,81.90
2022-08-30T21:41:05.792Z,81.90
2022-08-30T21:43:57.969Z,82.40
2022-08-30T21:46:47.409Z,82.20
2022-08-30T21:49:33.739Z,82.40
2022-08-30T21:52:19.526Z,82.60
2022-08-30T21:55:05.752Z,82.30
2022-08-30T21:57:51.133Z,82.20
2022-08-30T22:00:36.458Z,82.30
2022-08-30T22:03:34.432Z,82.30
2022-08-30T22:06:20.298Z,82.40
2022-08-30T22:09:08.689Z,82.50
2022-08-30T22:11:54.843Z,82.30
2022-08-30T22:14:40.901Z,82.20
2022-08-30T22:17:26.317Z,82.20
2022-08-30T22:20:18.448Z,82.10
2022-08-30T22:23:04.445Z,81.90
2022-08-30T22:25:51.778Z,82.10
2022-08-30T22:28:37.722Z,82.00
2022-08-30T22:31:23.732Z,81.70
2022-08-30T22:34:14.143Z,81.80
2022-08-30T22:37:00.153Z,81.50
2022-08-30T22:39:45.966Z,81.70
2022-08-30T22:42:31.627Z,81.70
2022-08-30T22:45:17.409Z,81.60
2022-08-30T22:48:03.211Z,81.50
2022-08-30T22:50:48.627Z,81.30
2022-08-30T22:53:34.377Z,82.00
2022-08-30T22:56:23.828Z,81.10
2022-08-30T22:59:09.474Z,81.10
2022-08-30T23:01:55.128Z,81.80
2022-08-30T23:04:41.449Z,81.00
2022-08-30T23:07:27.053Z,80.90
2022-08-30T23:10:14.318Z,80.70
2022-08-30T23:13:00.667Z,80.60
2022-08-30T23:15:46.033Z,80.50
2022-08-30T23:18:34.851Z,80.50
2022-08-30T23:21:26.850Z,80.40
2022-08-30T23:24:31.098Z,80.30
2022-08-30T23:27:34.921Z,80.40
2022-08-30T23:30:41.894Z,80.40
2022-08-30T23:33:45.915Z,80.30
2022-08-30T23:36:49.678Z,80.10
2022-08-30T23:39:54.340Z,80.40
2022-08-30T23:43:01.057Z,80.40
2022-08-30T23:46:04.916Z,80.60
2022-08-30T23:49:13.069Z,80.50
2022-08-30T23:52:20.162Z,80.40
2022-08-30T23:55:24.863Z,80.70
2022-08-30T23:58:28.767Z,80.50
